createdAt,value
2022-09-28T00:04:34.883Z,11.60
2022-09-28T00:09:41.788Z,12.50
2022-09-28T00:19:54.357Z,10.50
2022-09-28T00:25:01.658Z,12.50
2022-09-28T00:30:12.174Z,13.80
2022-09-28T00:35:25.512Z,12.60
2022-09-28T00:40:50.674Z,11.20
2022-09-28T00:46:04.555Z,10.60
2022-09-28T00:51:16.196Z,11.80
2022-09-28T00:56:31.152Z,12.20
2022-09-28T01:01:42.369Z,12.60
2022-09-28T01:06:53.135Z,11.70
2022-09-28T01:12:00.128Z,8.20
2022-09-28T01:22:28.710Z,7.00
2022-09-28T01:27:40.370Z,9.60
2022-09-28T01:32:52.390Z,9.10
2022-09-28T01:38:04.209Z,11.00
2022-09-28T01:43:16.425Z,10.90
2022-09-28T01:48:28.436Z,9.90
2022-09-28T01:53:41.546Z,10.40
2022-09-28T01:58:53.626Z,8.80
2022-09-28T02:04:06.342Z,9.70
2022-09-28T02:09:17.923Z,6.20
2022-09-28T02:14:26.557Z,8.20
2022-09-28T02:19:34.474Z,8.90
2022-09-28T02:24:47.332Z,9.90
2022-09-28T02:29:54.720Z,4.90
2022-09-28T02:35:02.153Z,7.70
2022-09-28T02:40:17.519Z,6.60
2022-09-28T02:45:37.661Z,7.20
2022-09-28T02:51:01.139Z,4.50
2022-09-28T02:56:21.834Z,5.60
2022-09-28T03:01:36.637Z,5.30
2022-09-28T03:06:48.642Z,4.30
2022-09-28T03:11:58.481Z,3.40
2022-09-28T03:17:07.730Z,3.50
2022-09-28T03:22:14.635Z,2.70
2022-09-28T03:27:22.188Z,3.10
2022-09-28T03:32:29.282Z,3.50
2022-09-28T03:37:36.459Z,3.40
2022-09-28T03:42:44.473Z,3.60
2022-09-28T03:47:51.382Z,2.70
2022-09-28T03:53:02.678Z,2.40
2022-09-28T03:58:09.782Z,2.50
2022-09-28T04:03:16.680Z,3.30
2022-09-28T04:13:30.592Z,3.30
2022-09-28T04:18:37.712Z,2.70
2022-09-28T04:29:08.985Z,2.10
2022-09-28T04:34:18.340Z,3.70
2022-09-28T04:39:25.429Z,3.40
2022-09-28T04:49:38.856Z,3.20
2022-09-28T04:54:45.924Z,5.70
2022-09-28T04:59:53.017Z,4.20
2022-09-28T05:10:07.136Z,3.30
2022-09-28T05:15:15.148Z,4.10
2022-09-28T05:20:22.873Z,3.80
2022-09-28T05:25:29.962Z,4.10
2022-09-28T05:30:37.328Z,4.00
2022-09-28T05:35:45.592Z,4.20
2022-09-28T05:40:54.293Z,4.20
2022-09-28T05:46:02.917Z,4.20
2022-09-28T05:51:12.171Z,4.20
2022-09-28T05:56:19.087Z,4.40
2022-09-28T06:01:26.106Z,5.20
2022-09-28T06:11:39.442Z,4.60
2022-09-28T06:16:46.669Z,4.70
2022-09-28T06:21:53.562Z,4.50
2022-09-28T06:27:00.915Z,4.60
2022-09-28T06:32:08.603Z,4.30
2022-09-28T06:37:15.552Z,4.00
2022-09-28T06:42:22.343Z,5.80
2022-09-28T06:52:35.312Z,4.40
2022-09-28T07:02:47.925Z,4.10
2022-09-28T07:07:56.908Z,3.70
2022-09-28T07:13:07.180Z,2.10
2022-09-28T07:18:16.215Z,3.00
2022-09-28T07:23:24.478Z,1.90
2022-09-28T07:28:31.805Z,2.40
2022-09-28T07:33:39.516Z,2.10
2022-09-28T07:38:46.296Z,1.70
2022-09-28T07:43:55.041Z,1.60
2022-09-28T07:49:08.390Z,1.20
2022-09-28T07:54:18.918Z,1.50
2022-09-28T07:59:29.235Z,1.40
2022-09-28T08:04:36.039Z,1.40
2022-09-28T08:09:43.142Z,1.10
2022-09-28T08:14:52.094Z,1.20
2022-09-28T08:20:17.730Z,1.00
2022-09-28T08:25:25.342Z,0.90
2022-09-28T08:30:32.773Z,1.10
2022-09-28T08:35:40.431Z,1.10
2022-09-28T08:40:58.271Z,0.70
2022-09-28T08:46:06.116Z,0.90
2022-09-28T08:51:19.981Z,0.80
2022-09-28T08:56:32.392Z,0.90
2022-09-28T09:01:51.893Z,0.70
2022-09-28T09:07:24.570Z,1.00
2022-09-28T09:12:40.319Z,1.00
2022-09-28T09:17:59.547Z,1.10
2022-09-28T09:23:18.743Z,1.10
2022-09-28T09:28:54.076Z,1.00
2022-09-28T09:34:19.712Z,0.80
2022-09-28T09:39:39.603Z,0.60
2022-09-28T09:44:59.997Z,0.70
2022-09-28T09:50:15.304Z,0.70
2022-09-28T09:55:30.076Z,0.70
2022-09-28T10:00:39.527Z,0.60
2022-09-28T10:05:51.542Z,0.90
2022-09-28T10:11:08.703Z,1.30
2022-09-28T10:21:24.304Z,0.80
2022-09-28T10:26:36.769Z,1.40
2022-09-28T10:31:46.541Z,1.30
2022-09-28T10:36:58.326Z,0.90
2022-09-28T10:42:08.576Z,0.80
2022-09-28T10:47:20.382Z,1.00
2022-09-28T10:52:42.324Z,0.90
2022-09-28T10:57:49.628Z,0.70
2022-09-28T11:02:57.148Z,0.70
2022-09-28T11:08:08.521Z,0.80
2022-09-28T11:13:15.857Z,1.00
2022-09-28T11:18:28.366Z,1.00
2022-09-28T11:23:35.586Z,1.40
2022-09-28T11:28:43.402Z,1.00
2022-09-28T11:33:51.068Z,0.70
2022-09-28T11:39:09.429Z,0.50
2022-09-28T11:44:34.657Z,0.60
2022-09-28T11:49:46.503Z,0.80
2022-09-28T11:55:00.705Z,0.80
2022-09-28T12:00:16.798Z,1.30
2022-09-28T12:05:29.103Z,0.90
2022-09-28T12:10:45.373Z,0.90
2022-09-28T12:16:23.469Z,1.00
2022-09-28T12:21:40.277Z,1.00
2022-09-28T12:26:53.404Z,0.80
2022-09-28T12:32:11.249Z,0.70
2022-09-28T12:37:33.484Z,0.80
2022-09-28T12:42:54.825Z,1.10
2022-09-28T12:48:30.110Z,0.90
2022-09-28T12:54:00.094Z,0.90
2022-09-28T12:59:19.980Z,0.80
2022-09-28T13:04:44.538Z,0.80
2022-09-28T13:10:02.569Z,1.10
2022-09-28T13:15:28.153Z,0.80
2022-09-28T13:20:47.141Z,0.60
2022-09-28T13:25:58.323Z,1.00
2022-09-28T13:31:06.864Z,0.70
2022-09-28T13:36:42.536Z,0.70
2022-09-28T13:41:52.150Z,0.80
2022-09-28T13:47:34.483Z,0.80
2022-09-28T13:52:49.763Z,1.20
2022-09-28T13:58:01.987Z,1.20
2022-09-28T14:03:27.691Z,0.80
2022-09-28T14:08:45.437Z,0.70
2022-09-28T14:14:25.511Z,1.50
2022-09-28T14:19:35.331Z,0.70
2022-09-28T14:24:56.813Z,0.70
2022-09-28T14:30:20.584Z,1.30
2022-09-28T14:35:35.256Z,1.20
2022-09-28T14:41:11.043Z,1.20
2022-09-28T14:46:35.815Z,1.30
2022-09-28T14:52:02.806Z,1.10
2022-09-28T14:57:19.314Z,1.20
2022-09-28T15:02:33.234Z,1.30
2022-09-28T15:07:49.742Z,1.20
2022-09-28T15:13:01.360Z,1.20
2022-09-28T15:18:27.819Z,1.40
2022-09-28T15:23:41.190Z,1.30
2022-09-28T15:28:48.390Z,1.40
2022-09-28T15:34:13.219Z,1.40
2022-09-28T15:39:26.561Z,1.50
2022-09-28T15:44:37.217Z,1.80
2022-09-28T15:49:56.999Z,1.90
2022-09-28T15:55:08.097Z,2.00
2022-09-28T16:00:29.912Z,1.90
2022-09-28T16:05:42.421Z,1.80
2022-09-28T16:10:58.151Z,1.70
2022-09-28T16:16:05.208Z,1.80
2022-09-28T16:21:40.397Z,1.70
2022-09-28T16:26:48.847Z,1.60
2022-09-28T16:31:56.036Z,1.70
2022-09-28T16:37:23.421Z,1.60
2022-09-28T16:42:31.328Z,1.50
2022-09-28T16:47:38.219Z,1.60
2022-09-28T16:53:03.244Z,1.90
2022-09-28T16:58:10.545Z,1.70
2022-09-28T17:03:19.819Z,2.00
2022-09-28T17:08:27.716Z,1.60
2022-09-28T17:13:36.357Z,1.50
2022-09-28T17:18:43.871Z,1.60
2022-09-28T17:23:52.601Z,1.70
2022-09-28T17:29:00.055Z,1.70
2022-09-28T17:34:07.324Z,1.60
2022-09-28T17:39:16.315Z,2.10
2022-09-28T17:44:23.474Z,1.80
2022-09-28T17:49:30.490Z,1.80
2022-09-28T17:54:37.580Z,2.10
2022-09-28T17:59:44.676Z,1.90
2022-09-28T18:04:55.516Z,1.90
2022-09-28T18:10:03.904Z,2.10
2022-09-28T18:15:13.128Z,2.20
2022-09-28T18:20:22.983Z,2.00
2022-09-28T18:25:31.241Z,2.20
2022-09-28T18:30:41.955Z,2.20
2022-09-28T18:35:55.614Z,1.70
2022-09-28T18:41:10.464Z,2.10
2022-09-28T18:46:18.936Z,2.10
2022-09-28T18:51:26.707Z,2.40
2022-09-28T18:56:34.481Z,2.70
2022-09-28T19:01:42.128Z,2.60
2022-09-28T19:06:52.653Z,2.60
2022-09-28T19:11:59.696Z,2.50
2022-09-28T19:17:06.736Z,2.70
2022-09-28T19:22:15.797Z,2.60
2022-09-28T19:27:23.293Z,2.80
2022-09-28T19:32:31.540Z,2.70
2022-09-28T19:37:39.041Z,2.40
2022-09-28T19:42:46.145Z,2.50
2022-09-28T19:47:56.192Z,2.30
2022-09-28T19:53:07.527Z,2.20
2022-09-28T19:58:14.831Z,2.30
2022-09-28T20:03:21.921Z,2.40
2022-09-28T20:08:30.247Z,2.10
2022-09-28T20:13:38.520Z,2.40
2022-09-28T20:18:51.163Z,2.00
2022-09-28T20:23:58.629Z,2.70
2022-09-28T20:29:12.563Z,1.90
2022-09-28T20:34:21.305Z,1.90
2022-09-28T20:39:28.303Z,2.10
2022-09-28T20:44:37.971Z,2.10
2022-09-28T20:49:46.704Z,3.10
2022-09-28T20:54:56.153Z,2.90
2022-09-28T21:00:05.082Z,3.10
2022-09-28T21:05:12.943Z,2.90
2022-09-28T21:10:21.112Z,2.80
2022-09-28T21:15:28.408Z,3.10
2022-09-28T21:20:35.465Z,3.50
2022-09-28T21:25:45.834Z,3.00
2022-09-28T21:30:54.331Z,2.70
2022-09-28T21:36:05.411Z,2.90
2022-09-28T21:41:12.909Z,3.00
2022-09-28T21:46:20.096Z,2.60
2022-09-28T21:51:31.287Z,2.60
2022-09-28T21:56:38.793Z,2.80
2022-09-28T22:01:46.519Z,3.00
2022-09-28T22:06:53.510Z,3.10
2022-09-28T22:12:00.508Z,3.00
2022-09-28T22:17:07.578Z,3.10
2022-09-28T22:22:16.958Z,2.90
2022-09-28T22:27:24.271Z,2.60
2022-09-28T22:32:31.276Z,3.60
2022-09-28T22:37:38.279Z,3.00
2022-09-28T22:42:45.691Z,2.90
2022-09-28T22:47:52.796Z,3.40
2022-09-28T22:53:00.808Z,3.20
2022-09-28T22:58:08.294Z,3.40
2022-09-28T23:03:17.852Z,3.50
2022-09-28T23:08:25.513Z,2.80
2022-09-28T23:13:32.699Z,2.80
2022-09-28T23:18:41.926Z,2.80
2022-09-28T23:23:53.686Z,2.40
2022-09-28T23:29:02.317Z,3.10
2022-09-28T23:34:12.609Z,2.60
2022-09-28T23:39:19.682Z,2.90
2022-09-28T23:44:28.323Z,3.10
2022-09-28T23:49:35.322Z,3.50
2022-09-28T23:54:42.271Z,3.90
2022-09-28T23:59:49.451Z,4.50
